createdAt,value
2019-05-15T00:02:13.675Z,9.90
2019-05-15T00:04:50.793Z,13.10
2019-05-15T00:07:29.435Z,9.47
2019-05-15T00:10:08.740Z,15.77
2019-05-15T00:12:45.510Z,13.00
2019-05-15T00:15:22.680Z,10.07
2019-05-15T00:17:59.715Z,11.20
2019-05-15T00:20:39.280Z,20.57
2019-05-15T00:23:18.165Z,14.50
2019-05-15T00:25:54.302Z,14.17
2019-05-15T00:28:31.375Z,11.80
2019-05-15T00:31:09.141Z,13.73
2019-05-15T00:33:48.241Z,12.13
2019-05-15T00:36:25.297Z,11.70
2019-05-15T00:39:02.424Z,13.00
2019-05-15T00:41:50.517Z,13.90
2019-05-15T00:44:18.702Z,14.43
2019-05-15T00:46:58.277Z,14.17
2019-05-15T00:49:38.101Z,10.10
2019-05-15T00:52:14.437Z,13.50
2019-05-15T00:54:51.504Z,14.27
2019-05-15T00:57:28.651Z,9.53
2019-05-15T01:00:08.226Z,10.20
2019-05-15T01:02:45.461Z,11.23
2019-05-15T01:05:22.580Z,13.43
2019-05-15T01:08:00.199Z,12.63
2019-05-15T01:10:38.643Z,12.77
2019-05-15T01:13:15.931Z,11.80
2019-05-15T01:15:53.000Z,7.57
2019-05-15T01:18:30.158Z,11.30
2019-05-15T01:21:08.362Z,12.57
2019-05-15T01:23:48.258Z,13.47
2019-05-15T01:26:24.668Z,14.07
2019-05-15T01:29:01.805Z,14.17
2019-05-15T01:31:38.802Z,13.60
2019-05-15T01:34:18.327Z,12.13
2019-05-15T01:36:54.643Z,14.63
2019-05-15T01:39:31.807Z,11.67
2019-05-15T01:42:08.800Z,14.17
2019-05-15T01:44:48.245Z,8.07
2019-05-15T01:47:24.673Z,13.97
2019-05-15T01:50:08.928Z,9.87
2019-05-15T01:52:45.466Z,11.20
2019-05-15T01:55:22.560Z,10.50
2019-05-15T01:57:59.707Z,10.90
2019-05-15T02:00:38.874Z,17.03
2019-05-15T02:03:15.532Z,13.10
2019-05-15T02:05:52.600Z,9.33
2019-05-15T02:08:29.815Z,13.20
2019-05-15T02:11:09.083Z,13.40
2019-05-15T02:13:47.922Z,15.57
2019-05-15T02:16:24.573Z,14.90
2019-05-15T02:19:01.719Z,16.00
2019-05-15T02:21:38.830Z,11.87
2019-05-15T02:24:15.992Z,16.43
2019-05-15T02:26:53.082Z,18.23
2019-05-15T02:29:30.253Z,17.13
2019-05-15T02:32:10.125Z,18.83
2019-05-15T02:34:49.761Z,16.13
2019-05-15T02:37:29.102Z,20.83
2019-05-15T02:40:05.000Z,21.83
2019-05-15T02:42:42.143Z,18.40
2019-05-15T02:45:19.730Z,23.90
2019-05-15T02:47:59.560Z,18.03
2019-05-15T02:50:38.782Z,18.00
2019-05-15T02:53:14.305Z,17.43
2019-05-15T02:55:51.358Z,21.23
2019-05-15T02:58:29.123Z,22.93
2019-05-15T03:01:09.327Z,20.57
2019-05-15T03:03:45.419Z,20.03
2019-05-15T03:06:22.584Z,17.47
2019-05-15T03:08:59.822Z,19.03
2019-05-15T03:11:40.446Z,20.17
2019-05-15T03:14:15.761Z,23.60
2019-05-15T03:16:52.963Z,20.57
2019-05-15T03:19:30.257Z,20.80
2019-05-15T03:22:09.807Z,23.33
2019-05-15T03:24:46.256Z,30.10
2019-05-15T03:27:23.387Z,20.17
2019-05-15T03:30:00.515Z,23.00
2019-05-15T03:32:46.666Z,19.50
2019-05-15T03:35:22.128Z,25.17
2019-05-15T03:37:55.191Z,29.70
2019-05-15T03:43:54.120Z,23.03
2019-05-15T03:46:31.277Z,21.37
2019-05-15T03:49:08.712Z,23.43
2019-05-15T03:51:46.295Z,26.00
2019-05-15T03:54:24.172Z,24.27
2019-05-15T03:57:01.337Z,25.70
2019-05-15T03:59:39.949Z,24.83
2019-05-15T04:02:19.404Z,22.70
2019-05-15T04:04:58.084Z,26.43
2019-05-15T04:07:34.766Z,20.87
2019-05-15T04:10:12.488Z,18.23
2019-05-15T04:12:59.895Z,23.03
2019-05-15T04:15:39.052Z,19.83
2019-05-15T04:18:14.557Z,24.87
2019-05-15T04:20:51.721Z,28.40
2019-05-15T04:23:30.133Z,24.77
2019-05-15T04:26:09.370Z,25.87
2019-05-15T04:28:49.196Z,27.30
2019-05-15T04:31:25.232Z,30.37
2019-05-15T04:34:02.485Z,23.17
2019-05-15T04:36:44.148Z,19.70
2019-05-15T04:39:19.311Z,25.07
2019-05-15T04:41:59.014Z,27.60
2019-05-15T04:44:35.649Z,27.33
2019-05-15T04:47:12.972Z,33.57
2019-05-15T04:49:50.666Z,24.03
2019-05-15T04:52:30.503Z,24.03
2019-05-15T04:55:10.106Z,28.57
2019-05-15T04:57:46.285Z,28.53
2019-05-15T05:00:43.583Z,21.37
2019-05-15T05:03:21.121Z,18.73
2019-05-15T05:05:59.415Z,28.87
2019-05-15T05:08:39.734Z,19.77
2019-05-15T05:11:16.138Z,24.37
2019-05-15T05:13:53.234Z,24.73
2019-05-15T05:16:30.465Z,20.27
2019-05-15T05:19:08.942Z,16.87
2019-05-15T05:21:47.937Z,22.60
2019-05-15T05:24:32.200Z,19.20
2019-05-15T05:27:09.349Z,16.40
2019-05-15T05:29:48.052Z,23.03
2019-05-15T05:32:32.062Z,26.47
2019-05-15T05:35:08.444Z,22.07
2019-05-15T05:37:47.937Z,25.67
2019-05-15T05:40:25.900Z,25.50
2019-05-15T05:43:04.510Z,24.80
2019-05-15T05:45:41.579Z,24.23
2019-05-15T05:48:19.257Z,25.50
2019-05-15T05:50:58.422Z,24.03
2019-05-15T05:53:35.410Z,26.03
2019-05-15T05:56:12.556Z,22.90
2019-05-15T05:58:49.708Z,28.00
2019-05-15T06:01:28.242Z,21.73
2019-05-15T06:04:07.758Z,20.03
2019-05-15T06:06:44.290Z,20.77
2019-05-15T06:09:21.441Z,20.60
2019-05-15T06:12:00.418Z,22.37
2019-05-15T06:14:38.120Z,21.80
2019-05-15T06:17:15.247Z,26.17
2019-05-15T06:19:52.402Z,26.83
2019-05-15T06:22:30.625Z,21.50
2019-05-15T06:25:11.445Z,16.63
2019-05-15T06:27:48.169Z,22.63
2019-05-15T06:30:29.888Z,26.40
2019-05-15T06:33:10.659Z,22.50
2019-05-15T06:35:43.835Z,21.20
2019-05-15T06:38:21.611Z,27.33
2019-05-15T06:40:58.781Z,20.47
2019-05-15T06:43:35.943Z,22.40
2019-05-15T06:46:13.141Z,21.03
2019-05-15T06:48:50.342Z,24.70
2019-05-15T06:51:28.826Z,21.43
2019-05-15T06:54:08.549Z,20.23
2019-05-15T06:56:44.845Z,23.13
2019-05-15T06:59:21.959Z,19.53
2019-05-15T07:01:59.516Z,19.17
2019-05-15T07:04:38.335Z,20.33
2019-05-15T07:07:18.049Z,20.97
2019-05-15T07:09:54.273Z,23.30
2019-05-15T07:12:31.532Z,23.77
2019-05-15T07:15:09.418Z,25.27
2019-05-15T07:17:48.416Z,28.07
2019-05-15T07:20:25.422Z,21.03
2019-05-15T07:23:02.652Z,27.60
2019-05-15T07:25:39.822Z,18.70
2019-05-15T07:28:18.135Z,25.90
2019-05-15T07:30:55.499Z,22.63
2019-05-15T07:33:38.994Z,20.63
2019-05-15T07:36:11.377Z,25.73
2019-05-15T07:38:48.674Z,25.90
2019-05-15T07:41:25.712Z,24.03
2019-05-15T07:44:02.898Z,21.37
2019-05-15T07:46:39.974Z,21.77
2019-05-15T07:49:21.072Z,31.27
2019-05-15T07:51:59.207Z,27.47
2019-05-15T07:54:38.307Z,30.67
2019-05-15T07:57:15.180Z,32.37
2019-05-15T07:59:52.430Z,31.27
2019-05-15T08:02:29.449Z,27.70
2019-05-15T08:05:08.459Z,31.87
2019-05-15T08:07:45.534Z,34.93
2019-05-15T08:10:22.685Z,32.73
2019-05-15T08:12:59.754Z,24.33
2019-05-15T08:15:38.110Z,30.93
2019-05-15T08:18:17.821Z,37.17
2019-05-15T08:20:54.182Z,37.20
2019-05-15T08:23:31.302Z,32.10
2019-05-15T08:26:08.916Z,30.93
2019-05-15T08:28:48.503Z,36.90
2019-05-15T08:31:25.051Z,34.87
2019-05-15T08:34:12.629Z,30.20
2019-05-15T08:36:40.918Z,33.10
2019-05-15T08:39:19.080Z,28.87
2019-05-15T08:41:58.323Z,29.00
2019-05-15T08:44:35.001Z,25.53
2019-05-15T08:47:12.148Z,27.93
2019-05-15T08:49:49.209Z,26.77
2019-05-15T08:52:28.312Z,26.40
2019-05-15T08:55:08.634Z,27.10
2019-05-15T08:57:54.117Z,23.87
2019-05-15T09:00:24.989Z,23.13
2019-05-15T09:03:02.167Z,27.67
2019-05-15T09:05:39.692Z,25.40
2019-05-15T09:08:19.429Z,28.33
2019-05-15T09:10:55.523Z,28.53
2019-05-15T09:13:32.685Z,34.07
2019-05-15T09:16:09.807Z,31.47
2019-05-15T09:18:48.521Z,31.90
2019-05-15T09:21:28.252Z,35.60
2019-05-15T09:24:04.735Z,39.40
2019-05-15T09:26:42.572Z,46.13
2019-05-15T09:29:20.119Z,46.73
2019-05-15T09:31:58.829Z,51.33
2019-05-15T09:34:49.946Z,44.77
2019-05-15T09:37:14.918Z,41.07
2019-05-15T09:39:52.115Z,46.50
2019-05-15T09:42:29.255Z,45.10
2019-05-15T09:45:08.898Z,50.43
2019-05-15T09:47:48.446Z,53.03
2019-05-15T09:50:25.506Z,50.50
2019-05-15T09:53:02.644Z,53.50
2019-05-15T09:55:42.806Z,52.80
2019-05-15T09:58:20.953Z,61.07
2019-05-15T10:00:58.297Z,60.80
2019-05-15T10:03:35.467Z,57.90
2019-05-15T10:06:12.595Z,61.70
2019-05-15T10:08:49.742Z,60.47
2019-05-15T10:11:28.934Z,43.93
2019-05-15T10:14:05.696Z,64.40
2019-05-15T10:16:43.380Z,65.10
2019-05-15T10:19:21.045Z,61.07
2019-05-15T10:21:59.508Z,65.60
2019-05-15T10:24:36.896Z,60.97
2019-05-15T10:27:13.979Z,67.87
2019-05-15T10:29:51.099Z,58.40
2019-05-15T10:32:28.994Z,53.83
2019-05-15T10:35:24.017Z,70.00
2019-05-15T10:37:48.528Z,53.13
2019-05-15T10:40:24.465Z,60.67
2019-05-15T10:43:01.539Z,51.10
2019-05-15T10:45:42.262Z,46.90
2019-05-15T10:48:18.942Z,53.07
2019-05-15T10:51:01.656Z,68.43
2019-05-15T10:53:35.019Z,63.60
2019-05-15T10:56:12.168Z,64.80
2019-05-15T10:58:50.623Z,52.00
2019-05-15T11:01:27.898Z,55.57
2019-05-15T11:04:05.760Z,46.63
2019-05-15T11:06:42.972Z,48.53
2019-05-15T11:09:20.043Z,64.30
2019-05-15T11:11:58.326Z,51.37
2019-05-15T11:14:37.854Z,48.13
2019-05-15T11:17:14.318Z,54.33
2019-05-15T11:19:51.453Z,41.53
2019-05-15T11:22:29.931Z,61.10
2019-05-15T11:25:09.934Z,63.80
2019-05-15T11:27:48.427Z,58.70
2019-05-15T11:30:25.669Z,52.77
2019-05-15T11:33:02.962Z,70.73
2019-05-15T11:35:56.380Z,70.37
2019-05-15T11:38:19.597Z,49.13
2019-05-15T11:40:56.866Z,59.10
2019-05-15T11:43:33.970Z,71.17
2019-05-15T11:46:11.015Z,71.90
2019-05-15T11:48:49.792Z,67.00
2019-05-15T11:51:29.064Z,69.93
2019-05-15T11:54:08.039Z,85.03
2019-05-15T11:56:44.404Z,67.40
2019-05-15T11:59:21.524Z,70.70
2019-05-15T12:01:59.934Z,83.93
2019-05-15T12:04:38.315Z,81.00
2019-05-15T12:07:17.668Z,80.13
2019-05-15T12:09:54.370Z,75.33
2019-05-15T12:12:32.156Z,80.47
2019-05-15T12:15:09.311Z,78.57
2019-05-15T12:17:48.500Z,79.23
2019-05-15T12:20:28.343Z,63.23
2019-05-15T12:23:04.146Z,92.60
2019-05-15T12:25:41.278Z,64.37
2019-05-15T12:28:18.479Z,90.00
2019-05-15T12:30:59.334Z,81.27
2019-05-15T12:33:34.810Z,70.93
2019-05-15T12:39:13.245Z,85.80
2019-05-15T13:00:22.724Z,71.93
2019-05-15T13:02:59.878Z,64.00
2019-05-15T13:05:39.246Z,57.17
2019-05-15T13:08:19.304Z,67.77
2019-05-15T13:10:55.325Z,56.27
2019-05-15T13:13:32.549Z,55.37
2019-05-15T13:16:09.783Z,57.93
2019-05-15T13:18:48.095Z,64.17
2019-05-15T13:21:25.693Z,59.10
2019-05-15T13:24:02.864Z,67.03
2019-05-15T13:27:07.811Z,74.67
2019-05-15T13:30:04.900Z,62.13
2019-05-15T13:32:42.079Z,70.00
2019-05-15T13:35:19.171Z,83.83
2019-05-15T13:37:58.490Z,65.47
2019-05-15T13:40:39.013Z,71.80
2019-05-15T13:43:13.834Z,72.57
2019-05-15T13:45:50.963Z,86.80
2019-05-15T13:48:29.810Z,74.97
2019-05-15T13:51:07.094Z,80.27
2019-05-15T13:53:44.251Z,57.20
2019-05-15T13:56:21.421Z,62.43
2019-05-15T13:58:58.839Z,68.87
2019-05-15T14:01:39.107Z,71.23
2019-05-15T14:04:18.152Z,71.50
2019-05-15T14:06:54.099Z,75.33
2019-05-15T14:09:33.696Z,85.87
2019-05-15T14:12:12.343Z,90.70
2019-05-15T14:14:49.136Z,94.63
2019-05-15T14:17:27.929Z,66.27
2019-05-15T14:20:05.576Z,83.20
2019-05-15T14:22:42.891Z,98.80
2019-05-15T14:25:20.015Z,95.53
2019-05-15T14:27:59.418Z,81.17
2019-05-15T14:30:35.977Z,66.07
2019-05-15T14:33:13.153Z,84.20
2019-05-15T14:35:50.581Z,96.57
2019-05-15T14:38:29.761Z,102.37
2019-05-15T14:41:08.839Z,83.63
2019-05-15T14:43:45.817Z,83.07
2019-05-15T14:46:23.074Z,64.17
2019-05-15T14:49:00.259Z,54.27
2019-05-15T14:51:39.204Z,54.67
2019-05-15T14:54:18.272Z,50.30
2019-05-15T14:56:55.416Z,50.90
2019-05-15T14:59:32.630Z,51.33
2019-05-15T15:02:12.543Z,60.07
2019-05-15T15:04:49.667Z,48.07
2019-05-15T15:07:28.292Z,44.83
2019-05-15T15:10:07.899Z,56.17
2019-05-15T15:12:45.257Z,58.10
2019-05-15T15:15:22.439Z,46.80
2019-05-15T15:17:59.581Z,44.80
2019-05-15T15:20:38.010Z,50.03
2019-05-15T15:23:16.834Z,57.47
2019-05-15T15:25:53.950Z,45.57
2019-05-15T15:28:31.198Z,53.83
2019-05-15T15:31:11.893Z,44.77
2019-05-15T15:33:49.157Z,45.53
2019-05-15T15:36:28.395Z,40.87
2019-05-15T15:39:13.074Z,42.70
2019-05-15T15:41:48.553Z,57.67
2019-05-15T15:44:28.198Z,45.50
2019-05-15T15:47:05.207Z,47.53
2019-05-15T15:49:48.364Z,56.80
2019-05-15T15:52:30.162Z,55.87
2019-05-15T15:55:13.772Z,55.43
2019-05-15T15:57:51.208Z,60.10
2019-05-15T16:00:28.816Z,48.20
2019-05-15T16:03:08.202Z,58.37
2019-05-15T16:05:45.054Z,56.97
2019-05-15T16:08:22.260Z,61.27
2019-05-15T16:10:59.469Z,56.90
2019-05-15T16:13:38.639Z,59.87
2019-05-15T16:16:17.824Z,68.70
2019-05-15T16:18:54.375Z,87.43
2019-05-15T16:21:31.759Z,93.30
2019-05-15T16:24:17.278Z,77.97
2019-05-15T16:26:49.847Z,73.67
2019-05-15T16:29:28.295Z,93.87
2019-05-15T16:32:05.693Z,93.07
2019-05-15T16:34:44.004Z,85.03
2019-05-15T16:37:21.169Z,91.80
2019-05-15T16:40:00.027Z,81.80
2019-05-15T16:42:43.563Z,81.63
2019-05-15T16:45:20.869Z,142.70
2019-05-15T16:47:58.789Z,85.57
2019-05-15T16:50:38.166Z,85.07
2019-05-15T16:53:22.291Z,88.07
2019-05-15T16:55:59.871Z,93.77
2019-05-15T16:58:38.544Z,87.03
2019-05-15T17:01:18.482Z,89.43
2019-05-15T17:03:55.167Z,97.83
2019-05-15T17:06:33.032Z,93.70
2019-05-15T17:09:20.867Z,97.50
2019-05-15T17:11:58.240Z,87.13
2019-05-15T17:14:38.383Z,97.23
2019-05-15T17:17:14.556Z,77.40
2019-05-15T17:19:51.690Z,98.20
2019-05-15T17:22:28.962Z,86.57
2019-05-15T17:25:08.889Z,107.07
2019-05-15T17:27:51.079Z,93.37
2019-05-15T17:30:28.727Z,90.77
2019-05-15T17:33:06.431Z,100.90
2019-05-15T17:35:44.199Z,88.43
2019-05-15T17:38:21.238Z,98.50
2019-05-15T17:40:58.394Z,92.33
2019-05-15T17:43:37.799Z,103.73
2019-05-15T17:46:14.361Z,98.43
2019-05-15T17:48:55.942Z,105.03
2019-05-15T17:51:30.283Z,105.23
2019-05-15T17:54:08.895Z,88.60
2019-05-15T17:56:48.704Z,75.47
2019-05-15T17:59:25.073Z,82.97
2019-05-15T18:02:02.425Z,70.90
2019-05-15T18:04:39.714Z,95.20
2019-05-15T18:07:16.910Z,78.33
2019-05-15T18:09:54.940Z,75.00
2019-05-15T18:12:32.196Z,75.20
2019-05-15T18:15:09.527Z,83.50
2019-05-15T18:17:48.198Z,80.40
2019-05-15T18:20:33.277Z,79.83
2019-05-15T18:23:10.407Z,68.20
2019-05-15T18:25:49.192Z,72.13
2019-05-15T18:28:26.830Z,73.95
2019-05-15T18:31:04.010Z,70.67
2019-05-15T18:33:53.062Z,72.07
2019-05-15T18:36:20.652Z,74.47
2019-05-15T18:38:58.934Z,71.63
2019-05-15T18:41:37.788Z,61.77
2019-05-15T18:44:15.127Z,68.67
2019-05-15T18:46:52.628Z,68.77
2019-05-15T18:49:29.827Z,63.47
2019-05-15T18:52:08.776Z,58.03
2019-05-15T18:54:48.086Z,56.37
2019-05-15T18:57:25.061Z,58.33
2019-05-15T19:00:02.323Z,55.03
2019-05-15T19:02:39.586Z,52.90
2019-05-15T19:05:18.554Z,51.70
2019-05-15T19:07:57.730Z,50.07
2019-05-15T19:10:34.592Z,50.80
2019-05-15T19:13:11.714Z,51.93
2019-05-15T19:15:49.294Z,48.07
2019-05-15T19:18:27.949Z,48.97
2019-05-15T19:21:05.210Z,48.57
2019-05-15T19:23:42.640Z,55.60
2019-05-15T19:26:20.030Z,51.47
2019-05-15T19:28:59.219Z,52.73
2019-05-15T19:31:39.272Z,46.60
2019-05-15T19:34:18.831Z,49.63
2019-05-15T19:36:55.495Z,53.60
2019-05-15T19:39:33.505Z,50.50
2019-05-15T19:42:10.799Z,52.50
2019-05-15T19:44:48.600Z,56.17
2019-05-15T19:47:26.147Z,46.50
2019-05-15T19:50:03.974Z,57.60
2019-05-15T19:52:41.599Z,46.77
2019-05-15T19:55:21.043Z,47.90
2019-05-15T19:58:05.366Z,53.63
2019-05-15T20:00:51.486Z,46.90
2019-05-15T20:03:28.398Z,45.67
2019-05-15T20:06:07.918Z,50.37
2019-05-15T20:08:45.256Z,48.87
2019-05-15T20:11:23.248Z,49.33
2019-05-15T20:14:00.916Z,49.63
2019-05-15T20:16:38.982Z,51.53
2019-05-15T20:19:18.156Z,50.80
2019-05-15T20:21:55.034Z,54.73
2019-05-15T20:24:32.405Z,62.97
2019-05-15T20:27:11.036Z,51.87
2019-05-15T20:29:48.642Z,52.43
2019-05-15T20:32:27.849Z,59.13
2019-05-15T20:35:08.674Z,53.07
2019-05-15T20:37:45.889Z,56.53
2019-05-15T20:40:26.950Z,68.03
2019-05-15T20:43:04.070Z,53.30
2019-05-15T20:45:41.232Z,55.83
2019-05-15T20:48:18.495Z,50.83
2019-05-15T20:50:55.707Z,53.87
2019-05-15T20:53:32.853Z,54.53
2019-05-15T20:56:10.139Z,45.23
2019-05-15T20:58:48.600Z,46.13
2019-05-15T21:01:28.821Z,49.77
2019-05-15T21:04:20.760Z,47.20
2019-05-15T21:06:57.099Z,48.17
2019-05-15T21:09:38.953Z,49.57
2019-05-15T21:12:17.950Z,56.37
2019-05-15T21:14:58.117Z,49.00
2019-05-15T21:17:39.594Z,48.33
2019-05-15T21:20:18.700Z,43.83
2019-05-15T21:23:01.109Z,51.83
2019-05-15T21:25:41.422Z,44.83
2019-05-15T21:28:20.761Z,42.43
2019-05-15T21:31:00.360Z,39.10
2019-05-15T21:33:40.391Z,35.70
2019-05-15T21:36:20.122Z,37.17
2019-05-15T21:38:59.548Z,42.87
2019-05-15T21:41:38.946Z,31.63
2019-05-15T21:44:19.112Z,36.30
2019-05-15T21:46:58.928Z,47.93
2019-05-15T21:49:38.916Z,34.90
2019-05-15T21:52:18.592Z,34.67
2019-05-15T21:54:58.799Z,31.67
2019-05-15T21:57:40.276Z,36.80
2019-05-15T22:00:38.214Z,27.27
2019-05-15T22:03:17.812Z,26.80
2019-05-15T22:05:58.207Z,26.07
2019-05-15T22:08:38.458Z,26.10
2019-05-15T22:11:18.722Z,25.77
2019-05-15T22:13:59.185Z,32.17
2019-05-15T22:16:38.309Z,29.60
2019-05-15T22:19:18.129Z,35.97
2019-05-15T22:21:58.682Z,27.83
2019-05-15T22:24:38.955Z,26.03
2019-05-15T22:27:21.016Z,29.00
2019-05-15T22:29:58.763Z,29.60
2019-05-15T22:32:41.549Z,27.40
2019-05-15T22:35:19.540Z,24.20
2019-05-15T22:37:59.347Z,22.93
2019-05-15T22:40:38.897Z,22.50
2019-05-15T22:43:18.697Z,17.93
2019-05-15T22:45:58.783Z,22.27
2019-05-15T22:48:38.605Z,22.50
2019-05-15T22:51:19.878Z,20.17
2019-05-15T22:54:02.238Z,25.40
2019-05-15T22:56:41.598Z,29.20
2019-05-15T22:59:21.131Z,28.43
2019-05-15T23:02:00.898Z,26.53
2019-05-15T23:04:48.304Z,26.97
2019-05-15T23:07:28.354Z,23.27
2019-05-15T23:10:08.885Z,25.13
2019-05-15T23:12:49.570Z,25.30
2019-05-15T23:15:29.443Z,25.60
2019-05-15T23:18:08.707Z,31.77
2019-05-15T23:20:48.504Z,31.83
2019-05-15T23:23:28.591Z,25.07
2019-05-15T23:26:09.747Z,24.87
2019-05-15T23:28:50.305Z,20.10
2019-05-15T23:31:29.858Z,23.07
2019-05-15T23:34:09.471Z,18.73
2019-05-15T23:36:51.311Z,20.03
2019-05-15T23:39:31.112Z,21.13
2019-05-15T23:42:12.417Z,23.40
2019-05-15T23:44:52.687Z,22.17
2019-05-15T23:47:32.581Z,19.57
2019-05-15T23:50:12.503Z,22.23
2019-05-15T23:52:52.447Z,20.60
2019-05-15T23:55:33.843Z,24.10
2019-05-15T23:58:18.885Z,16.87
